Westhampton, NY (11977)

4:15 PM EDT on August 29, 2016 (GMT -0400)
56 South Country Road | | Change Station
Active Advisory: Coastal Hazard Statement

Elev 32 ft 40.83 °N, 72.63 °W | Updated 2 seconds ago

Clear
Clear
88.3 °F
Feels Like 88 °F
N
6.3
Wind Variable Wind from NNW
Gusts 16.0 mph

Today
High -- | Low -- °F
--% Chance of Precip.
Yesterday
High -- | Low -- °F
Precip. -- in
Pressure 30.07 in
Visibility 10.0 miles
Clouds Clear
Heat Index 88 °F
Dew Point 59 °F
Humidity 38%
Rainfall 0.00 in
Snow Depth Not available.
6:15 AM 7:27 PM
Waning Crescent, 7% visible
METAR KFOK 291953Z 35010G17KT 10SM CLR 32/13 A3007 RMK AO2 SLP181 T03220133
Pressure 30.07 in
Visibility 10.0 miles
Clouds Clear
Heat Index 88 °F
Dew Point 59 °F
Humidity 38%
Rainfall 0.00 in
Snow Depth Not available.
6:15 AM 7:27 PM
Waning Crescent, 7% visible
METAR KFOK 291953Z 35010G17KT 10SM CLR 32/13 A3007 RMK AO2 SLP181 T03220133

10-Day Weather Forecast

Almanac

Astronomy

Aug. 29, 2016 Rise Set
Actual Time
Civil Twilight
Nautical Twilight
Astronomical Twilight
Moon
Length of Visible Light
Length of Day
Tomorrow will be .
, % of the Moon is Illuminated

Today's Extremes

State Highs State Lows

Community

WunderPhotos

Upload Photos

1,935,647 photos uploaded!

WunderBlog® & News

Nearby

Air Quality

  Air Quality AQ Index Pollutant
Not available.

Snow Depth

Station Depth Elevation

Earthquake Activity

City Distance Mag. Time & Date
Minimum magnitude displayed is 2.5.

Coastal Water Temperatures

Place Temperature

Stations

Nearby Weather Stations

Station Location Temp. Windchill Dew Point Humidity Wind Precip. Elev Updated Type
                   

Watches & Warnings

Coastal Hazard Statement
Issued: 4:11 PM EDT Aug. 29, 2016 – National Weather Service

... High rip current risk now in effect through Tuesday evening...

* locations... the ocean beaches of Kings... southern
Queens... southern Nassau... and southern Suffolk counties.

* Rip current risk... high

* surf height... 3 to 4 feet.

* Lightning risk... none

* timing... through 800 PM EDT Tuesday.

Precautionary/preparedness actions...

Rip currents are powerful channels of water flowing quickly away
from shore... which occur most often at low spots or breaks in The
Sandbar and in the vicinity of structures such as groins...
jetties and piers. Talk to lifeguards and beach officials to
learn about any surf hazards and heed their advice. Pay attention
to flags and posted signs and swim in life guarded areas.

If you become caught in a rip current... Yell for help. Remain
calm... do not exhaust yourself and stay afloat while waiting for
help. If you have to swim out of a rip current... swim parallel to
shore. Once you are away from the force of the rip current...
begin to swim back toward the beach. Do not attempt to swim
directly against a rip current as you will tire quickly.